KLND

Hunt Field Airport

Lander, Wyoming, USA
METAR KLND 201553Z AUTO 00000KT 4SM HZ CLR 16/09 A3020 RMK AO2 SLP172 T01610094
Observed Flight Rules
Aug-20 @ 15:53 UTC (33 minutes ago) Marginal Visual Flight Rules
Visibility Clouds Conditions
4 miles
  • Clear skies
  • Haze
Temperatures Readings
Current 16°C / 61°F
Dewpoint 9°C / 48°F
Humidity 63%
Altimeter 30.2" Hg
Pressure 1017.2 hPa
Elevation 1694
METAR KLND 201553Z AUTO 00000KT 4SM HZ CLR 16/09 A3020 RMK AO2 SLP172 T01610094
Observed Flight Rules
Aug-20 @ 15:53 UTC
(33 minutes ago)
MVFR
Clouds
  • Clear skies
Conditions
  • Haze
Temperature Dewpoint
16°C / 61°F 9°C / 48°F
Humidity Altimeter Pressure
63% 30.2" Hg 1017.2 hPa